Capitol Logistics 414


KRFD
Chicago/Rockford International Airport
Rockford, Illinois, US
KSMF
Sacramento International Airport
Sacramento, California, US

Route Details

Aircraft Information
Primary: Boeing 757-200SF
Backup: Boeing 737-800BCF
Route Data
Distance: 1511nm
Sched. Duration: 4h 09m
Avg. Duration: 3h 83m (-26m)
Times Flown: 5
Recm'd Route: DBQ J94 BFF J157 LAR TCH J154 BAM J94 LLC ANAHO SLMMR3
Planned Altitude: 36,000ft
Origin Wx: KRFD 271754Z 31013G20KT 10SM BKN032 M01/M11 A3006 RMK AO2 SLP189 60000 T10111106 10000 21067 58008
Dest. Wx: KSMF 271753Z 36003KT 10SM CLR 15/07 A3027 RMK AO2 SLP250 T01500067 10150 20056 50009 PNO $
Notes:

Financial History
Total Freight: 275,858lbs
Average Load: 55,172lbs/flt
Fuel Used: 149,450lbs
Avg. Fuel Used: 29,890lbs/flt
Fuel Expense: $100,418
Avg. Fuel Expense: $20,084
Avg. Fuel Cost: $0.67/lbs
Total Gross Income: $358,615
Pilot Pay: $745
Total Expenses: $38,990
Total Revenue: $215,165
Average Revenue: $71,723.08